createdAt,value
2023-04-12T16:46:51.294Z,96954.00
2023-04-12T16:49:19.805Z,96949.34
2023-04-12T16:51:47.714Z,96948.53
2023-04-12T16:54:14.468Z,96955.34
2023-04-12T16:56:42.374Z,96951.19
2023-04-12T16:59:10.044Z,96955.06
2023-04-12T17:01:37.341Z,96957.53
2023-04-12T17:04:04.247Z,96951.97
2023-04-12T17:06:34.238Z,96964.34
2023-04-12T17:09:01.873Z,96957.19
2023-04-12T17:11:29.900Z,96960.69
2023-04-12T17:13:57.137Z,96962.13
2023-04-12T17:16:24.928Z,96965.84
2023-04-12T17:18:51.910Z,96960.53
2023-04-12T17:21:20.429Z,96958.91
2023-04-12T17:23:50.784Z,96955.19
2023-04-12T17:26:19.311Z,96958.09
2023-04-12T17:28:46.180Z,96950.28
2023-04-12T17:31:13.132Z,96941.44
2023-04-12T17:33:39.890Z,96951.28
2023-04-12T17:36:11.848Z,96957.44
2023-04-12T17:38:41.748Z,96960.91
2023-04-12T17:41:10.333Z,96957.63
2023-04-12T17:43:38.185Z,96954.66
2023-04-12T17:46:07.665Z,96945.34
2023-04-12T17:48:34.854Z,96948.31
2023-04-12T17:51:03.624Z,96952.94
2023-04-12T17:53:30.592Z,96945.69
2023-04-12T17:55:58.220Z,96938.78
2023-04-12T17:58:25.963Z,63001.84
2023-04-12T18:00:53.371Z,63001.84
2023-04-12T18:03:20.706Z,63001.84
2023-04-12T18:05:47.917Z,63001.84
2023-04-12T18:08:17.130Z,63001.84
2023-04-12T18:10:44.890Z,63001.84
2023-04-12T18:13:12.211Z,63001.84
2023-04-12T18:15:39.057Z,63001.84
2023-04-12T18:18:07.706Z,63001.84
2023-04-12T18:20:34.666Z,63001.84
2023-04-12T18:23:01.971Z,63001.84
2023-04-12T18:25:30.771Z,63001.84
2023-04-12T18:27:57.959Z,63001.84
2023-04-12T18:30:24.811Z,63001.84
2023-04-12T18:32:52.659Z,63001.84
2023-04-12T18:35:19.991Z,63001.84
2023-04-12T18:37:48.620Z,63001.84
2023-04-12T18:40:16.565Z,63001.84
2023-04-12T18:42:46.180Z,63001.84
2023-04-12T18:45:13.466Z,63001.84
2023-04-12T18:47:41.104Z,63001.84
2023-04-12T18:50:08.743Z,63001.84
2023-04-12T18:52:37.867Z,63001.84
2023-04-12T18:55:05.495Z,63001.84
2023-04-12T18:57:34.044Z,63001.84
2023-04-12T19:00:00.982Z,63001.84
2023-04-12T19:02:28.595Z,63001.84
2023-04-12T19:04:55.410Z,63001.84
2023-04-12T19:07:22.420Z,63001.84
2023-04-12T19:09:49.478Z,63001.84
2023-04-12T19:12:16.351Z,63001.84
2023-04-12T19:14:43.090Z,63001.84
2023-04-12T19:17:09.949Z,63001.84
2023-04-12T19:19:36.795Z,63001.84
2023-04-12T19:22:03.652Z,63001.84
2023-04-12T19:24:30.470Z,63001.84
2023-04-12T19:26:57.810Z,63001.84
2023-04-12T19:29:25.806Z,63001.84
2023-04-12T19:31:54.002Z,63001.84
2023-04-12T19:34:20.924Z,63001.84
2023-04-12T19:36:47.830Z,63001.84
2023-04-12T19:39:20.236Z,63001.84
2023-04-12T19:41:49.452Z,63001.84
2023-04-12T19:44:16.645Z,63001.84
2023-04-12T19:46:43.612Z,63001.84
2023-04-12T19:49:10.655Z,63001.84
2023-04-12T19:51:38.059Z,63001.84
2023-04-12T19:54:05.447Z,63001.84
2023-04-12T19:56:32.257Z,63001.84
2023-04-12T19:59:00.492Z,63001.84
2023-04-12T20:01:27.645Z,63001.84
2023-04-12T20:03:55.295Z,63001.84
2023-04-12T20:06:22.341Z,63001.84
2023-04-12T20:08:49.067Z,63001.84
2023-04-12T20:11:16.340Z,63001.84
2023-04-12T20:13:43.343Z,63001.84
2023-04-12T20:16:10.312Z,63001.84
2023-04-12T20:18:37.158Z,63001.84
2023-04-12T20:21:06.252Z,63001.84
2023-04-12T20:23:37.525Z,63001.84
2023-04-12T20:26:05.750Z,63001.84
2023-04-12T20:28:34.965Z,63001.84
2023-04-12T20:31:01.928Z,63001.84
2023-04-12T20:33:29.906Z,63001.84
2023-04-12T20:35:56.895Z,63001.84
2023-04-12T20:38:24.018Z,63001.84
2023-04-12T20:40:52.862Z,63001.84
2023-04-12T20:43:20.030Z,63001.84
2023-04-12T20:45:54.778Z,63001.84
2023-04-12T20:48:22.158Z,63001.84
2023-04-12T20:50:50.745Z,63001.84
2023-04-12T20:53:17.780Z,63001.84
2023-04-12T20:55:45.835Z,63001.84
2023-04-12T20:58:12.671Z,63001.84
2023-04-12T21:00:39.502Z,63001.84
2023-04-12T21:03:06.841Z,63001.84
2023-04-12T21:05:33.959Z,63001.84
2023-04-12T21:08:00.870Z,63001.84
2023-04-12T21:10:28.460Z,63001.84
2023-04-12T21:12:55.319Z,63001.84
2023-04-12T21:15:22.634Z,63001.84
2023-04-12T21:17:51.314Z,63001.84
2023-04-12T21:20:19.037Z,63001.84
2023-04-12T21:22:48.000Z,63001.84
2023-04-12T21:25:16.903Z,63001.84
2023-04-12T21:27:47.982Z,63001.84
2023-04-12T21:30:15.856Z,63001.84
2023-04-12T21:32:44.183Z,63001.84
2023-04-12T21:35:11.597Z,63001.84
2023-04-12T21:37:39.930Z,63001.84
2023-04-12T21:40:13.029Z,63001.84
2023-04-12T21:42:41.155Z,63001.84
2023-04-12T21:45:10.036Z,63001.84
2023-04-12T21:47:40.013Z,63001.84
2023-04-12T21:50:08.734Z,63001.84
2023-04-12T21:52:38.406Z,63001.84
2023-04-12T21:55:08.588Z,63001.84
2023-04-12T21:57:41.901Z,63001.84
2023-04-12T22:00:10.236Z,63001.84
2023-04-12T22:02:37.242Z,63001.84
2023-04-12T22:05:16.147Z,63001.84
2023-04-12T22:07:42.933Z,63001.84
2023-04-12T22:10:10.415Z,63001.84
2023-04-12T22:12:37.634Z,63001.84
2023-04-12T22:15:05.658Z,63001.84
2023-04-12T22:17:32.980Z,63001.84
2023-04-12T22:19:59.930Z,63001.84
2023-04-12T22:22:30.132Z,63001.84
2023-04-12T22:24:57.142Z,63001.84
2023-04-12T22:27:26.782Z,63001.84
2023-04-12T22:29:53.957Z,63001.84
2023-04-12T22:32:20.934Z,63001.84
2023-04-12T22:34:54.793Z,63001.84
2023-04-12T22:37:28.533Z,63001.84
2023-04-12T22:39:55.314Z,63001.84
2023-04-12T22:42:26.106Z,63001.84
2023-04-12T22:44:55.128Z,63001.84
2023-04-12T22:47:21.880Z,63001.84
2023-04-12T22:49:50.738Z,63001.84
2023-04-12T22:52:17.950Z,63001.84
2023-04-12T22:54:45.031Z,63001.84
2023-04-12T22:57:12.750Z,63001.84
2023-04-12T22:59:39.440Z,63001.84
2023-04-12T23:02:07.069Z,63001.84
2023-04-12T23:05:05.755Z,63001.84
2023-04-12T23:07:33.039Z,63001.84
2023-04-12T23:09:59.777Z,63001.84
2023-04-12T23:12:26.589Z,63001.84
2023-04-12T23:14:55.949Z,63001.84
2023-04-12T23:17:22.964Z,63001.84
2023-04-12T23:19:54.062Z,63001.84
2023-04-12T23:22:48.694Z,63001.84
2023-04-12T23:25:24.834Z,63001.84
2023-04-12T23:27:52.137Z,63001.84
2023-04-12T23:30:19.056Z,63001.84
2023-04-12T23:32:46.218Z,63001.84
2023-04-12T23:35:14.673Z,63001.84
2023-04-12T23:37:43.399Z,63001.84
2023-04-12T23:40:15.134Z,63001.84
2023-04-12T23:42:43.763Z,63001.84
2023-04-12T23:45:10.979Z,63001.84
2023-04-12T23:47:38.296Z,63001.84
2023-04-12T23:50:07.750Z,63001.84
2023-04-12T23:52:34.432Z,63001.84
2023-04-12T23:55:02.812Z,63001.84
2023-04-12T23:57:30.172Z,63001.84
2023-04-12T23:59:57.658Z,63001.84
